Georg Stage — OYKL — position and weather

sailwx.info

Track history (hours):
 
Tides and Currents Weather Stations Pressure Air Temp Water Temp Dewpoint Dewpoint Depression Visibility Wind Speed Wind Dir Waves Ship Positions

Georg Stage (Denmark)

Ship's website: http://www.georgstage.dk

Last reported at 2017-Jun-26 08:30 UTC. Time now 2017-Jun-26 08:47 UTC.
Position N 38°30' W 028°44'.

; draft 4.2 m.

Type: Sailing vessel. MMSI: 219417000.

Date/timePositionNaut miles runAvg speedWind from/ knotsBaromVisibWave heightAir tempDewpointWater temp
2017-Jun-26 08:30N 38°30' W 028°44'3 6.1
2017-Jun-26 08:00N 38°30' W 028°48'2 4.1
2017-Jun-26 07:30N 38°29' W 028°50'3 6.3
2017-Jun-26 07:00N 38°30' W 028°54'3 6.4
2017-Jun-26 06:30N 38°30' W 028°58'3 6.5
2017-Jun-26 06:00N 38°30' W 029°02'3 6.0
2017-Jun-26 05:30N 38°30' W 029°06'3 6.4
2017-Jun-26 05:00N 38°31' W 029°10'3 6.5
2017-Jun-26 04:30N 38°31' W 029°14'3 6.4
2017-Jun-26 04:00N 38°32' W 029°18'3 6.2
2017-Jun-26 03:30N 38°32' W 029°22'3 6.0
2017-Jun-26 03:00N 38°33' W 029°26'3 6.0
2017-Jun-26 02:30N 38°33' W 029°30'3 6.2
2017-Jun-26 02:00N 38°33' W 029°34'3 6.4
2017-Jun-26 01:30N 38°34' W 029°38'3 6.6
2017-Jun-26 01:00N 38°34' W 029°42'3 6.0
2017-Jun-26 00:30N 38°35' W 029°46'3 5.9
2017-Jun-26 00:00N 38°35' W 029°50'3 6.1
2017-Jun-25 23:30N 38°35' W 029°54'3 6.1
2017-Jun-25 23:00N 38°36' W 029°57'3 5.8
2017-Jun-25 22:30N 38°36' W 030°01'3 5.9
2017-Jun-25 22:00N 38°37' W 030°05'3 5.5
2017-Jun-25 21:31N 38°37' W 030°08'6 5.8
2017-Jun-25 20:29N 38°39' W 030°15'4 5.9
2017-Jun-25 19:53N 38°41' W 030°19'  
Track history (hours):
 
Tides and Currents Weather Stations Pressure Air Temp Water Temp Dewpoint Dewpoint Depression Visibility Wind Speed Wind Dir Waves Ship Positions

Georg Stage (Denmark)

Ship's website: http://www.georgstage.dk

Last reported at 2017-Jun-26 08:30 UTC. Time now 2017-Jun-26 08:47 UTC.
Position N 38°30' W 028°44'.

; draft 4.2 m.

Type: Sailing vessel. MMSI: 219417000.

Date/timePositionNaut miles runAvg speedWind from/ knotsBaromVisibWave heightAir tempDewpointWater temp
2017-Jun-26 08:30N 38°30' W 028°44'3 6.1
2017-Jun-26 08:00N 38°30' W 028°48'2 4.1
2017-Jun-26 07:30N 38°29' W 028°50'3 6.3
2017-Jun-26 07:00N 38°30' W 028°54'3 6.4
2017-Jun-26 06:30N 38°30' W 028°58'3 6.5
2017-Jun-26 06:00N 38°30' W 029°02'3 6.0
2017-Jun-26 05:30N 38°30' W 029°06'3 6.4
2017-Jun-26 05:00N 38°31' W 029°10'3 6.5
2017-Jun-26 04:30N 38°31' W 029°14'3 6.4
2017-Jun-26 04:00N 38°32' W 029°18'3 6.2
2017-Jun-26 03:30N 38°32' W 029°22'3 6.0
2017-Jun-26 03:00N 38°33' W 029°26'3 6.0
2017-Jun-26 02:30N 38°33' W 029°30'3 6.2
2017-Jun-26 02:00N 38°33' W 029°34'3 6.4
2017-Jun-26 01:30N 38°34' W 029°38'3 6.6
2017-Jun-26 01:00N 38°34' W 029°42'3 6.0
2017-Jun-26 00:30N 38°35' W 029°46'3 5.9
2017-Jun-26 00:00N 38°35' W 029°50'3 6.1
2017-Jun-25 23:30N 38°35' W 029°54'3 6.1
2017-Jun-25 23:00N 38°36' W 029°57'3 5.8
2017-Jun-25 22:30N 38°36' W 030°01'3 5.9
2017-Jun-25 22:00N 38°37' W 030°05'3 5.5
2017-Jun-25 21:31N 38°37' W 030°08'6 5.8
2017-Jun-25 20:29N 38°39' W 030°15'4 5.9
2017-Jun-25 19:53N 38°41' W 030°19'  

Dump ship's entire track history